Marion, Ohio
Current Conditions -  °F | °C
As of 1:43 PM on Saturday 25 Oct 2014 (Local Time) from KMNN Reporting Station
Haze Haze  
Wind Chill: 69°   Ceiling: Unl
Heat Index: 69°   Visibility: 1.7mi
Dew Point: 53°   Wind: 13mph
Humidity: 57%   Direction: 250°WSW
Pressure: 29.86"   Gusts: NA
Location:  40.58°N, 83.13°W
Report Text: KMNN 251743Z AUTO 25011KT 230V300 1 3/4SM HZ CLR 21/12 A2986 RMK AO2 T02060117 TSNO $
Loading
Personal Weather Stations






























Interactive Weather Map
Tropical Storm Tracking
New forecast layout! Learn more

10-Day Weather Forecast

Advertisements
Track Severe Weather on mobile